Portada
METAR-TAF:

METAR-TAF

Aeroports :

Base aèria d'İncirlik

Incirlik, Turquia

latitud: 37-00N, longitud: 035-25E, altitud: 73 m

Observació

L'informe es va fer fa 3 hores i 27 minuts, a les 04:20 UTC
Vent 2 kt del Est/Nord-Est
Temperatura 10°C
Humitat 66%
Pressió 1017 hPa
Visibilitat 10 km o més
sense núvols per sota de 1500 mi sense presència de cumulonimbus.

METAR: LTAG 060420Z 06002KT CAVOK 10/04 Q1017 NOSIG RMK 3AC100

Hora: 10:47 (07:47 UTC)

Pronòstic

L'informe es va fer fa 3 hores i 7 minuts, a les 04:40 UTC
Pronòstic vàlid del 06 a les 06 UTC al 07 a les 06 UTC
Vent 2 kt amb direcció variable
Visibilitat 10 km o més
sense núvols per sota de 1500 mi sense presència de cumulonimbus.
Evolucionant progressivament
l' 06 a les 10 UTC al 06 a les 12 UTC
Núvols disperses a una alçada de 3500 ft

TAF: LTAG 060440Z 0606/0706 VRB02KT CAVOK BECMG 0610/0612 SCT035

Observacions i pronòstics meteorològics de més de 4000 aeroports (METAR i TAF).

Les estacions disponibles són els punts grocs i vermells al mapa.

Posi el ratolí al punt desitjat per veure el nom de l'estació.

Feu clic per veure les observacions i els pronòstics meteorològics.

Per canviar el mapa: feu clic els botons verds amb una creu de color negre per apropar; al botó verd amb un guió per allunyar la imatge; o en les fletxes verdes per a mapes adjacents.


METAR-TAF: